createdAt,value
2017-09-28T00:04:09.619Z,17.10
2017-09-28T00:06:35.899Z,17.10
2017-09-28T00:09:03.171Z,17.00
2017-09-28T00:11:32.540Z,16.90
2017-09-28T00:14:01.579Z,17.00
2017-09-28T00:16:27.839Z,16.90
2017-09-28T00:18:54.086Z,16.90
2017-09-28T00:21:21.376Z,16.90
2017-09-28T00:23:49.607Z,17.00
2017-09-28T00:26:15.838Z,16.90
2017-09-28T00:28:43.094Z,16.80
2017-09-28T00:31:09.351Z,16.60
2017-09-28T00:33:36.355Z,16.80
2017-09-28T00:36:04.819Z,16.80
2017-09-28T00:38:31.966Z,16.90
2017-09-28T00:40:59.307Z,16.90
2017-09-28T00:43:25.570Z,16.90
2017-09-28T00:45:51.808Z,16.90
2017-09-28T00:48:18.090Z,17.10
2017-09-28T00:50:44.365Z,16.90
2017-09-28T00:53:11.985Z,16.80
2017-09-28T00:55:38.227Z,17.10
2017-09-28T00:58:05.441Z,16.90
2017-09-28T01:00:31.699Z,16.80
2017-09-28T01:02:57.955Z,16.80
2017-09-28T01:05:24.235Z,17.00
2017-09-28T01:07:51.143Z,16.80
2017-09-28T01:10:19.640Z,16.80
2017-09-28T01:12:45.939Z,16.80
2017-09-28T01:15:12.999Z,16.80
2017-09-28T01:17:47.753Z,16.80
2017-09-28T01:20:19.809Z,16.80
2017-09-28T01:22:46.046Z,16.80
2017-09-28T01:25:12.299Z,16.70
2017-09-28T01:27:38.581Z,16.70
2017-09-28T01:30:04.823Z,16.80
2017-09-28T01:32:31.063Z,16.70
2017-09-28T01:34:57.374Z,16.70
2017-09-28T01:37:25.987Z,16.70
2017-09-28T01:39:52.234Z,16.70
2017-09-28T01:42:18.520Z,16.70
2017-09-28T01:44:44.758Z,16.70
2017-09-28T01:47:11.007Z,16.70
2017-09-28T01:49:38.003Z,16.70
2017-09-28T01:52:04.427Z,16.90
2017-09-28T01:54:30.703Z,16.70
2017-09-28T01:56:58.843Z,16.60
2017-09-28T01:59:25.194Z,16.70
2017-09-28T02:01:51.458Z,16.60
2017-09-28T02:04:17.766Z,16.60
2017-09-28T02:06:44.026Z,16.80
2017-09-28T02:09:10.275Z,16.90
2017-09-28T02:11:36.550Z,16.80
2017-09-28T02:14:02.801Z,16.60
2017-09-28T02:16:29.062Z,16.60
2017-09-28T02:21:28.390Z,16.50
2017-09-28T02:23:55.326Z,16.50
2017-09-28T02:26:21.567Z,16.50
2017-09-28T02:28:47.795Z,16.50
2017-09-28T02:31:14.046Z,16.50
2017-09-28T02:33:40.290Z,16.50
2017-09-28T02:36:06.550Z,16.50
2017-09-28T02:38:33.611Z,16.40
2017-09-28T02:40:59.858Z,16.40
2017-09-28T02:43:26.082Z,16.60
2017-09-28T02:45:54.145Z,16.40
2017-09-28T02:48:20.414Z,16.40
2017-09-28T02:50:46.653Z,16.40
2017-09-28T02:53:12.915Z,16.40
2017-09-28T02:55:39.157Z,16.40
2017-09-28T02:58:05.402Z,16.40
2017-09-28T03:00:32.583Z,16.40
2017-09-28T03:02:58.818Z,16.40
2017-09-28T03:05:25.054Z,16.40
2017-09-28T03:07:51.358Z,16.50
2017-09-28T03:10:17.595Z,16.40
2017-09-28T03:12:43.830Z,16.30
2017-09-28T03:15:10.096Z,16.30
2017-09-28T03:17:36.351Z,16.30
2017-09-28T03:20:03.349Z,16.30
2017-09-28T03:22:29.615Z,16.30
2017-09-28T03:24:55.862Z,16.50
2017-09-28T03:27:22.119Z,16.30
2017-09-28T03:29:48.384Z,16.30
2017-09-28T03:32:14.651Z,16.30
2017-09-28T03:34:41.664Z,16.30
2017-09-28T03:37:07.952Z,16.30
2017-09-28T03:39:34.202Z,16.40
2017-09-28T03:42:00.449Z,16.40
2017-09-28T03:44:26.699Z,16.60
2017-09-28T03:46:52.953Z,16.40
2017-09-28T03:49:19.954Z,16.40
2017-09-28T03:51:46.230Z,16.40
2017-09-28T03:54:12.487Z,16.40
2017-09-28T03:56:39.454Z,16.40
2017-09-28T03:59:05.729Z,16.30
2017-09-28T04:01:33.944Z,16.40
2017-09-28T04:04:00.191Z,16.20
2017-09-28T04:06:26.451Z,16.60
2017-09-28T04:08:52.689Z,16.50
2017-09-28T04:11:18.923Z,16.40
2017-09-28T04:13:45.186Z,16.30
2017-09-28T04:16:12.171Z,16.30
2017-09-28T04:18:38.438Z,16.30
2017-09-28T04:21:04.707Z,16.30
2017-09-28T04:23:30.959Z,16.50
2017-09-28T04:25:57.228Z,16.30
2017-09-28T04:28:23.623Z,16.30
2017-09-28T04:30:49.879Z,16.30
2017-09-28T04:33:16.142Z,16.30
2017-09-28T04:35:42.415Z,16.30
2017-09-28T04:38:08.703Z,16.30
2017-09-28T04:40:35.795Z,16.30
2017-09-28T04:43:02.102Z,16.30
2017-09-28T04:45:28.347Z,16.30
2017-09-28T04:47:55.291Z,16.30
2017-09-28T04:50:21.570Z,16.30
2017-09-28T04:52:47.806Z,16.30
2017-09-28T04:55:14.047Z,16.30
2017-09-28T04:57:40.344Z,16.30
2017-09-28T05:00:06.590Z,16.20
2017-09-28T05:02:32.990Z,16.20
2017-09-28T05:04:59.238Z,16.20
2017-09-28T05:07:25.510Z,16.20
2017-09-28T05:09:51.744Z,16.20
2017-09-28T05:12:18.018Z,16.20
2017-09-28T05:14:44.270Z,16.40
2017-09-28T05:17:10.502Z,16.20
2017-09-28T05:19:36.759Z,16.20
2017-09-28T05:22:03.035Z,16.40
2017-09-28T05:24:30.025Z,16.20
2017-09-28T05:26:56.481Z,16.20
2017-09-28T05:29:22.739Z,16.20
2017-09-28T05:31:49.080Z,16.20
2017-09-28T05:34:15.531Z,16.20
2017-09-28T05:36:42.575Z,16.20
2017-09-28T05:39:08.851Z,16.20
2017-09-28T05:41:35.142Z,16.20
2017-09-28T05:44:01.415Z,16.20
2017-09-28T05:46:27.682Z,16.20
2017-09-28T05:48:53.985Z,16.20
2017-09-28T05:51:20.250Z,16.20
2017-09-28T05:53:46.482Z,16.40
2017-09-28T05:56:12.781Z,16.30
2017-09-28T05:58:39.035Z,16.30
2017-09-28T06:01:05.287Z,16.30
2017-09-28T06:03:31.654Z,16.30
2017-09-28T06:05:57.919Z,16.30
2017-09-28T06:08:24.171Z,16.30
2017-09-28T06:10:50.450Z,16.40
2017-09-28T06:13:16.694Z,16.40
2017-09-28T06:15:42.939Z,16.30
2017-09-28T06:18:09.234Z,16.40
2017-09-28T06:20:35.481Z,16.60
2017-09-28T06:23:01.728Z,16.40
2017-09-28T06:25:28.027Z,16.60
2017-09-28T06:27:54.274Z,16.40
2017-09-28T06:30:20.522Z,16.40
2017-09-28T06:32:46.783Z,16.50
2017-09-28T06:35:13.059Z,16.70
2017-09-28T06:37:39.298Z,16.50
2017-09-28T06:40:06.576Z,16.40
2017-09-28T06:42:32.807Z,16.50
2017-09-28T06:44:59.071Z,16.50
2017-09-28T06:47:25.354Z,16.70
2017-09-28T06:49:51.605Z,16.50
2017-09-28T06:52:17.907Z,16.60
2017-09-28T06:54:44.192Z,16.60
2017-09-28T06:57:10.462Z,16.60
2017-09-28T06:59:36.690Z,16.60
2017-09-28T07:02:02.989Z,16.60
2017-09-28T07:04:29.367Z,16.70
2017-09-28T07:06:55.599Z,16.70
2017-09-28T07:09:21.894Z,16.70
2017-09-28T07:11:48.135Z,16.70
2017-09-28T07:14:14.366Z,16.70
2017-09-28T07:16:41.476Z,17.00
2017-09-28T07:19:07.751Z,16.70
2017-09-28T07:21:33.999Z,16.80
2017-09-28T07:24:00.259Z,16.70
2017-09-28T07:26:26.503Z,16.80
2017-09-28T07:28:53.522Z,16.90
2017-09-28T07:31:19.805Z,16.80
2017-09-28T07:33:46.063Z,16.80
2017-09-28T07:36:12.314Z,16.80
2017-09-28T07:38:38.595Z,16.80
2017-09-28T07:41:04.847Z,16.80
2017-09-28T07:43:31.096Z,16.90
2017-09-28T07:45:57.362Z,16.90
2017-09-28T07:48:23.625Z,16.90
2017-09-28T07:50:49.856Z,17.00
2017-09-28T07:53:16.134Z,16.90
2017-09-28T07:55:42.364Z,16.90
2017-09-28T07:58:08.601Z,16.90
2017-09-28T08:00:34.856Z,17.00
2017-09-28T08:03:01.128Z,17.00
2017-09-28T08:05:27.623Z,17.00
2017-09-28T08:07:53.882Z,17.00
2017-09-28T08:10:20.123Z,17.00
2017-09-28T08:12:46.353Z,17.00
2017-09-28T08:15:12.626Z,17.10
2017-09-28T08:17:38.870Z,17.20
2017-09-28T08:20:05.098Z,17.10
2017-09-28T08:22:31.362Z,17.10
2017-09-28T08:24:57.674Z,17.10
2017-09-28T08:27:23.910Z,17.20
2017-09-28T08:29:59.167Z,17.20
2017-09-28T08:32:25.447Z,17.20
2017-09-28T08:34:51.682Z,17.20
2017-09-28T08:37:17.938Z,17.20
2017-09-28T08:39:44.236Z,17.20
2017-09-28T08:42:10.491Z,17.20
2017-09-28T08:44:36.822Z,17.20
2017-09-28T08:47:10.011Z,17.20
2017-09-28T08:49:36.286Z,17.20
2017-09-28T08:52:02.578Z,17.30
2017-09-28T08:54:28.851Z,17.30
2017-09-28T08:56:55.117Z,17.50
2017-09-28T08:59:21.384Z,17.30
2017-09-28T09:01:47.685Z,17.30
2017-09-28T09:04:13.987Z,17.30
2017-09-28T09:06:40.339Z,17.30
2017-09-28T09:09:06.622Z,17.30
2017-09-28T09:11:32.874Z,17.30
2017-09-28T09:13:59.158Z,17.30
2017-09-28T09:16:25.381Z,17.30
2017-09-28T09:18:51.625Z,17.30
2017-09-28T09:21:17.909Z,17.30
2017-09-28T09:23:44.150Z,17.30
2017-09-28T09:26:10.990Z,17.50
2017-09-28T09:28:37.231Z,17.30
2017-09-28T09:31:04.216Z,17.30
2017-09-28T09:33:30.453Z,17.30
2017-09-28T09:35:56.718Z,17.30
2017-09-28T09:38:22.945Z,17.40
2017-09-28T09:40:49.194Z,17.40
2017-09-28T09:43:15.466Z,17.40
2017-09-28T09:45:41.718Z,17.30
2017-09-28T09:48:07.958Z,17.40
2017-09-28T09:50:34.238Z,17.40
2017-09-28T09:53:01.212Z,17.50
2017-09-28T09:55:27.602Z,17.50
2017-09-28T09:57:53.861Z,17.50
2017-09-28T10:00:20.107Z,17.50
2017-09-28T10:02:46.342Z,17.50
2017-09-28T10:05:12.593Z,17.50
2017-09-28T10:07:44.682Z,17.50
2017-09-28T10:10:15.952Z,17.50
2017-09-28T10:12:43.967Z,17.50
2017-09-28T10:15:15.790Z,17.50
2017-09-28T10:17:42.054Z,17.50
2017-09-28T10:20:08.322Z,17.60
2017-09-28T10:22:34.649Z,17.50
2017-09-28T10:25:00.899Z,17.60
2017-09-28T10:27:27.142Z,17.50
2017-09-28T10:29:53.409Z,17.40
2017-09-28T10:32:19.642Z,17.60
2017-09-28T10:34:45.875Z,17.50
2017-09-28T10:37:12.150Z,17.40
2017-09-28T10:39:38.585Z,17.40
2017-09-28T10:42:05.762Z,17.60
2017-09-28T10:44:32.751Z,17.40
2017-09-28T10:46:59.019Z,17.40
2017-09-28T10:49:25.270Z,17.40
2017-09-28T10:51:52.270Z,17.30
2017-09-28T10:54:18.522Z,17.40
2017-09-28T10:56:44.773Z,17.40
2017-09-28T10:59:11.056Z,17.30
2017-09-28T11:01:37.306Z,17.30
2017-09-28T11:04:03.557Z,17.30
2017-09-28T11:06:29.842Z,17.30
2017-09-28T11:08:56.134Z,17.30
2017-09-28T11:11:22.370Z,17.30
2017-09-28T11:13:48.615Z,17.10
2017-09-28T11:16:14.890Z,17.30
2017-09-28T11:18:41.150Z,17.30
2017-09-28T11:21:07.402Z,17.30
2017-09-28T11:23:34.405Z,17.30
2017-09-28T11:26:00.671Z,17.30
2017-09-28T11:28:26.932Z,17.30
2017-09-28T11:30:54.728Z,17.30
2017-09-28T11:33:20.958Z,17.30
2017-09-28T11:35:47.234Z,17.30
2017-09-28T11:38:13.465Z,17.30
2017-09-28T11:40:39.719Z,17.30
2017-09-28T11:43:05.987Z,17.30
2017-09-28T11:45:33.169Z,17.30
2017-09-28T11:47:59.438Z,17.30
2017-09-28T11:50:26.102Z,17.30
2017-09-28T11:52:52.338Z,17.30
2017-09-28T11:55:18.582Z,17.30
2017-09-28T11:57:45.047Z,17.50
2017-09-28T12:00:11.350Z,17.30
2017-09-28T12:02:37.599Z,17.30
2017-09-28T12:05:03.875Z,17.30
2017-09-28T12:07:30.105Z,17.30
2017-09-28T12:09:57.369Z,17.40
2017-09-28T12:12:23.637Z,17.30
2017-09-28T12:14:49.871Z,17.30
2017-09-28T12:17:16.114Z,17.20
2017-09-28T12:19:42.388Z,17.30
2017-09-28T12:22:08.618Z,17.40
2017-09-28T12:24:34.851Z,17.20
2017-09-28T12:27:01.168Z,17.20
2017-09-28T12:29:27.418Z,17.20
2017-09-28T12:31:53.954Z,17.20
2017-09-28T12:34:20.283Z,17.20
2017-09-28T12:36:47.242Z,17.20
2017-09-28T12:39:14.143Z,17.20
2017-09-28T12:41:40.434Z,17.20
2017-09-28T12:44:06.671Z,17.20
2017-09-28T12:46:33.410Z,17.20
2017-09-28T12:48:59.726Z,17.20
2017-09-28T12:51:25.986Z,17.20
2017-09-28T12:53:52.234Z,17.20
2017-09-28T12:56:18.587Z,17.30
2017-09-28T12:58:44.827Z,17.10
2017-09-28T13:01:11.079Z,17.30
2017-09-28T13:03:38.331Z,17.30
2017-09-28T13:06:04.564Z,17.30
2017-09-28T13:08:30.910Z,17.30
2017-09-28T13:10:58.135Z,17.30
2017-09-28T13:13:25.262Z,17.30
2017-09-28T13:15:51.490Z,17.30
2017-09-28T13:18:17.774Z,17.30
2017-09-28T13:20:44.024Z,17.30
2017-09-28T13:23:10.251Z,17.40
2017-09-28T13:25:36.535Z,17.30
2017-09-28T13:28:02.770Z,17.30
2017-09-28T13:30:29.012Z,17.30
2017-09-28T13:32:55.449Z,17.30
2017-09-28T13:35:21.910Z,17.30
2017-09-28T13:37:48.138Z,17.30
2017-09-28T13:40:14.426Z,17.30
2017-09-28T13:42:41.095Z,17.30
2017-09-28T13:45:08.248Z,17.30
2017-09-28T13:47:34.529Z,17.30
2017-09-28T13:50:00.774Z,17.30
2017-09-28T13:52:27.167Z,17.30
2017-09-28T13:54:53.414Z,17.50
2017-09-28T13:57:19.650Z,17.30
2017-09-28T13:59:45.894Z,17.30
2017-09-28T14:02:12.719Z,17.30
2017-09-28T14:04:38.951Z,17.50
2017-09-28T14:07:05.187Z,17.30
2017-09-28T14:09:32.351Z,17.30
2017-09-28T14:11:58.674Z,17.40
2017-09-28T14:14:24.922Z,17.30
2017-09-28T14:16:51.182Z,17.30
2017-09-28T14:19:18.143Z,17.30
2017-09-28T14:21:44.394Z,17.30
2017-09-28T14:24:10.714Z,17.30
2017-09-28T14:26:36.946Z,17.30
2017-09-28T14:29:03.198Z,17.40
2017-09-28T14:31:29.458Z,17.30
2017-09-28T14:33:55.694Z,17.30
2017-09-28T14:36:21.960Z,17.30
2017-09-28T14:38:48.235Z,17.30
2017-09-28T14:41:14.462Z,17.30
2017-09-28T14:43:40.710Z,17.30
2017-09-28T14:46:07.158Z,17.30
2017-09-28T14:48:33.386Z,17.30
2017-09-28T14:50:59.618Z,17.40
2017-09-28T14:53:26.638Z,17.40
2017-09-28T14:55:52.862Z,17.30
2017-09-28T14:58:19.109Z,17.40
2017-09-28T15:00:45.921Z,17.40
2017-09-28T15:03:12.147Z,17.40
2017-09-28T15:05:38.406Z,17.50
2017-09-28T15:08:07.762Z,17.40
2017-09-28T15:10:35.851Z,17.40
2017-09-28T15:13:02.468Z,17.40
2017-09-28T15:15:30.573Z,17.40
2017-09-28T15:17:57.818Z,17.40
2017-09-28T15:20:24.274Z,17.40
2017-09-28T15:22:50.715Z,17.40
2017-09-28T15:25:18.778Z,17.40
2017-09-28T15:27:46.051Z,17.30
2017-09-28T15:30:13.509Z,17.40
2017-09-28T15:32:39.895Z,17.40
2017-09-28T15:35:06.298Z,17.40
2017-09-28T15:37:33.634Z,17.40
2017-09-28T15:40:01.145Z,17.40
2017-09-28T15:42:30.296Z,17.40
2017-09-28T15:44:56.595Z,17.30
2017-09-28T15:47:22.854Z,17.40
2017-09-28T15:49:49.081Z,17.50
2017-09-28T15:52:15.342Z,17.40
2017-09-28T15:54:41.597Z,17.20
2017-09-28T15:57:08.673Z,17.40
2017-09-28T15:59:35.094Z,17.10
2017-09-28T16:02:01.451Z,17.40
2017-09-28T16:04:28.107Z,17.40
2017-09-28T16:06:54.536Z,17.40
2017-09-28T16:09:20.927Z,17.40
2017-09-28T16:11:47.312Z,17.40
2017-09-28T16:14:13.862Z,17.40
2017-09-28T16:16:40.268Z,17.40
2017-09-28T16:19:13.507Z,17.60
2017-09-28T16:21:39.742Z,17.40
2017-09-28T16:24:06.012Z,17.50
2017-09-28T16:26:32.270Z,17.50
2017-09-28T16:28:58.505Z,17.40
2017-09-28T16:31:24.810Z,17.50
2017-09-28T16:33:51.154Z,17.40
2017-09-28T16:36:17.387Z,17.40
2017-09-28T16:38:43.692Z,17.60
2017-09-28T16:41:10.075Z,17.40
2017-09-28T16:43:36.318Z,17.40
2017-09-28T16:46:02.568Z,17.40
2017-09-28T16:48:29.923Z,17.50
2017-09-28T16:50:56.158Z,17.40
2017-09-28T16:53:23.250Z,17.40
2017-09-28T16:55:49.550Z,17.40
2017-09-28T16:58:15.790Z,17.50
2017-09-28T17:00:42.037Z,17.40
2017-09-28T17:03:08.279Z,17.40
2017-09-28T17:05:34.506Z,17.60
2017-09-28T17:08:00.759Z,17.50
2017-09-28T17:10:27.212Z,17.40
2017-09-28T17:12:53.458Z,17.40
2017-09-28T17:15:19.767Z,17.40
2017-09-28T17:17:46.098Z,17.30
2017-09-28T17:20:12.347Z,17.50
2017-09-28T17:22:38.623Z,17.30
2017-09-28T17:25:05.662Z,17.30
2017-09-28T17:27:32.658Z,17.30
2017-09-28T17:29:59.645Z,17.30
2017-09-28T17:32:25.911Z,17.20
2017-09-28T17:34:52.139Z,17.10
2017-09-28T17:37:18.382Z,17.20
2017-09-28T17:39:44.638Z,17.20
2017-09-28T17:42:11.854Z,17.20
2017-09-28T17:44:38.104Z,17.20
2017-09-28T17:47:04.412Z,17.20
2017-09-28T17:49:30.643Z,17.20
2017-09-28T17:51:56.897Z,17.20
2017-09-28T17:54:23.218Z,17.20
2017-09-28T17:56:49.563Z,17.20
2017-09-28T17:59:15.796Z,17.20
2017-09-28T18:01:42.090Z,17.20
2017-09-28T18:04:08.343Z,17.10
2017-09-28T18:06:36.176Z,17.20
2017-09-28T18:09:02.454Z,17.10
2017-09-28T18:11:28.922Z,17.20
2017-09-28T18:13:55.875Z,17.10
2017-09-28T18:16:22.362Z,17.30
2017-09-28T18:18:48.682Z,17.20
2017-09-28T18:21:14.960Z,17.20
2017-09-28T18:23:41.309Z,17.20
2017-09-28T18:26:07.649Z,17.10
2017-09-28T18:28:33.970Z,17.00
2017-09-28T18:31:00.402Z,16.80
2017-09-28T18:33:26.715Z,17.20
2017-09-28T18:35:53.079Z,17.10
2017-09-28T18:38:19.390Z,17.20
2017-09-28T18:40:45.708Z,17.20
2017-09-28T18:43:12.047Z,17.20
2017-09-28T18:45:39.178Z,17.10
2017-09-28T18:48:05.495Z,17.10
2017-09-28T18:50:32.566Z,17.20
2017-09-28T18:52:58.913Z,17.20
2017-09-28T18:55:25.377Z,17.20
2017-09-28T18:57:52.161Z,17.20
2017-09-28T19:00:18.520Z,17.20
2017-09-28T19:02:44.902Z,17.30
2017-09-28T19:05:12.000Z,17.20
2017-09-28T19:07:38.548Z,17.10
2017-09-28T19:10:05.638Z,17.20
2017-09-28T19:12:32.158Z,17.10
2017-09-28T19:14:59.234Z,17.10
2017-09-28T19:17:25.665Z,17.10
2017-09-28T19:19:51.945Z,17.20
2017-09-28T19:22:18.248Z,17.10
2017-09-28T19:24:45.294Z,17.10
2017-09-28T19:27:11.661Z,17.10
2017-09-28T19:29:38.024Z,17.10
2017-09-28T19:32:05.351Z,17.20
2017-09-28T19:34:31.702Z,17.20
2017-09-28T19:36:57.970Z,17.10
2017-09-28T19:39:25.119Z,17.20
2017-09-28T19:41:51.439Z,17.20
2017-09-28T19:44:17.796Z,17.20
2017-09-28T19:46:44.115Z,17.20
2017-09-28T19:49:10.461Z,17.10
2017-09-28T19:51:37.578Z,17.10
2017-09-28T19:54:03.937Z,17.10
2017-09-28T19:56:31.178Z,17.20
2017-09-28T19:58:58.257Z,17.10
2017-09-28T20:01:24.575Z,17.10
2017-09-28T20:03:50.926Z,17.10
2017-09-28T20:06:17.981Z,17.10
2017-09-28T20:08:44.275Z,17.20
2017-09-28T20:11:10.581Z,17.10
2017-09-28T20:13:36.901Z,17.10
2017-09-28T20:16:03.146Z,17.10
2017-09-28T20:18:29.548Z,17.10
2017-09-28T20:20:56.576Z,17.10
2017-09-28T20:23:22.912Z,17.10
2017-09-28T20:25:49.191Z,17.30
2017-09-28T20:28:15.510Z,17.10
2017-09-28T20:30:41.771Z,17.10
2017-09-28T20:33:15.247Z,17.10
2017-09-28T20:35:41.610Z,17.10
2017-09-28T20:38:07.926Z,17.20
2017-09-28T20:40:35.335Z,17.10
2017-09-28T20:43:01.714Z,17.10
2017-09-28T20:45:27.960Z,17.10
2017-09-28T20:47:54.302Z,17.10
2017-09-28T20:50:21.558Z,17.00
2017-09-28T20:52:47.795Z,17.00
2017-09-28T20:55:14.050Z,17.10
2017-09-28T20:57:40.487Z,17.10
2017-09-28T21:00:06.710Z,17.10
2017-09-28T21:02:33.195Z,17.10
2017-09-28T21:04:59.528Z,17.10
2017-09-28T21:07:25.786Z,17.10
2017-09-28T21:09:52.027Z,17.20
2017-09-28T21:12:18.396Z,17.10
2017-09-28T21:14:45.337Z,17.10
2017-09-28T21:17:11.582Z,17.10
2017-09-28T21:19:38.222Z,17.10
2017-09-28T21:22:05.203Z,17.10
2017-09-28T21:24:31.456Z,17.10
2017-09-28T21:26:57.855Z,17.10
2017-09-28T21:29:25.843Z,17.10
2017-09-28T21:31:52.081Z,17.10
2017-09-28T21:34:18.378Z,17.10
2017-09-28T21:36:45.346Z,17.10
2017-09-28T21:39:11.593Z,17.10
2017-09-28T21:41:38.845Z,17.10
2017-09-28T21:44:05.106Z,17.10
2017-09-28T21:46:31.430Z,17.10
2017-09-28T21:48:57.766Z,17.10
2017-09-28T21:51:24.019Z,17.10
2017-09-28T21:53:50.290Z,17.20
2017-09-28T21:56:16.570Z,17.20
2017-09-28T21:58:42.830Z,17.10
2017-09-28T22:01:09.822Z,17.20
2017-09-28T22:03:43.079Z,17.10
2017-09-28T22:06:10.090Z,17.20
2017-09-28T22:08:36.334Z,17.20
2017-09-28T22:11:02.666Z,17.20
2017-09-28T22:13:29.026Z,17.30
2017-09-28T22:15:56.402Z,17.20
2017-09-28T22:18:22.830Z,17.20
2017-09-28T22:20:49.202Z,17.20
2017-09-28T22:23:15.443Z,17.20
2017-09-28T22:25:41.720Z,17.20
2017-09-28T22:28:07.968Z,17.20
2017-09-28T22:30:35.202Z,17.20
2017-09-28T22:33:01.523Z,17.20
2017-09-28T22:35:27.834Z,17.20
2017-09-28T22:37:54.070Z,17.20
2017-09-28T22:40:21.827Z,17.20
2017-09-28T22:42:48.197Z,17.20
2017-09-28T22:45:14.564Z,16.90
2017-09-28T22:47:40.931Z,17.20
2017-09-28T22:50:07.300Z,17.20
2017-09-28T22:52:33.648Z,17.20
2017-09-28T22:55:00.030Z,17.20
2017-09-28T22:57:26.352Z,17.20
2017-09-28T22:59:52.682Z,17.20
2017-09-28T23:02:18.926Z,17.20
2017-09-28T23:04:45.162Z,17.20
2017-09-28T23:07:11.435Z,17.30
2017-09-28T23:09:38.434Z,17.20
2017-09-28T23:12:04.721Z,17.10
2017-09-28T23:14:31.474Z,17.10
2017-09-28T23:16:57.838Z,17.40
2017-09-28T23:19:24.098Z,17.20
2017-09-28T23:21:51.186Z,17.20
2017-09-28T23:24:17.430Z,17.10
2017-09-28T23:26:43.662Z,17.20
2017-09-28T23:29:09.907Z,17.20
2017-09-28T23:31:36.178Z,17.10
2017-09-28T23:34:02.487Z,17.30
2017-09-28T23:36:28.731Z,17.10
2017-09-28T23:38:55.011Z,17.10
2017-09-28T23:41:21.251Z,17.30
2017-09-28T23:43:47.568Z,17.10
2017-09-28T23:46:13.832Z,17.10
2017-09-28T23:48:41.994Z,17.10
2017-09-28T23:51:08.233Z,17.10
2017-09-28T23:53:34.507Z,17.10
2017-09-28T23:56:01.666Z,17.10
2017-09-28T23:58:27.927Z,17.10
